sensor_id;sensor_type;location;lat;lon;timestamp;P1;durP1;ratioP1;P2;durP2;ratioP2
11535;SDS011;5824;49.336;8.652;2023-06-22T00:01:22;10.80;;;5.37;;
11535;SDS011;5824;49.336;8.652;2023-06-22T00:03:48;7.53;;;5.60;;
11535;SDS011;5824;49.336;8.652;2023-06-22T00:06:13;10.60;;;5.57;;
11535;SDS011;5824;49.336;8.652;2023-06-22T00:08:39;10.33;;;6.10;;
11535;SDS011;5824;49.336;8.652;2023-06-22T00:11:05;6.90;;;5.07;;
11535;SDS011;5824;49.336;8.652;2023-06-22T00:13:31;7.50;;;5.33;;
11535;SDS011;5824;49.336;8.652;2023-06-22T00:15:56;8.50;;;5.40;;
11535;SDS011;5824;49.336;8.652;2023-06-22T00:18:22;8.63;;;5.67;;
11535;SDS011;5824;49.336;8.652;2023-06-22T00:20:47;6.70;;;5.43;;
11535;SDS011;5824;49.336;8.652;2023-06-22T00:23:13;10.10;;;5.50;;
11535;SDS011;5824;49.336;8.652;2023-06-22T00:25:40;6.27;;;5.20;;
11535;SDS011;5824;49.336;8.652;2023-06-22T00:28:06;6.70;;;5.17;;
11535;SDS011;5824;49.336;8.652;2023-06-22T00:30:33;7.20;;;5.50;;
11535;SDS011;5824;49.336;8.652;2023-06-22T00:32:59;8.10;;;5.93;;
11535;SDS011;5824;49.336;8.652;2023-06-22T00:35:25;9.27;;;5.17;;
11535;SDS011;5824;49.336;8.652;2023-06-22T00:37:55;6.83;;;5.50;;
11535;SDS011;5824;49.336;8.652;2023-06-22T00:40:25;9.23;;;5.97;;
11535;SDS011;5824;49.336;8.652;2023-06-22T00:42:54;7.80;;;5.80;;
11535;SDS011;5824;49.336;8.652;2023-06-22T00:45:20;8.83;;;5.47;;
11535;SDS011;5824;49.336;8.652;2023-06-22T00:47:48;7.50;;;5.57;;
11535;SDS011;5824;49.336;8.652;2023-06-22T00:50:16;7.37;;;5.60;;
11535;SDS011;5824;49.336;8.652;2023-06-22T00:52:46;10.27;;;6.20;;
11535;SDS011;5824;49.336;8.652;2023-06-22T00:55:21;10.90;;;6.43;;
11535;SDS011;5824;49.336;8.652;2023-06-22T00:57:47;8.47;;;6.50;;
11535;SDS011;5824;49.336;8.652;2023-06-22T01:00:16;14.23;;;7.83;;
11535;SDS011;5824;49.336;8.652;2023-06-22T01:02:44;17.40;;;7.90;;
11535;SDS011;5824;49.336;8.652;2023-06-22T01:05:14;19.67;;;9.03;;
11535;SDS011;5824;49.336;8.652;2023-06-22T01:10:43;12.07;;;8.30;;
11535;SDS011;5824;49.336;8.652;2023-06-22T01:13:16;14.67;;;8.70;;
11535;SDS011;5824;49.336;8.652;2023-06-22T01:15:46;14.70;;;8.30;;
11535;SDS011;5824;49.336;8.652;2023-06-22T01:18:16;12.60;;;8.67;;
11535;SDS011;5824;49.336;8.652;2023-06-22T01:20:43;12.93;;;7.57;;
11535;SDS011;5824;49.336;8.652;2023-06-22T01:26:19;15.00;;;8.80;;
11535;SDS011;5824;49.336;8.652;2023-06-22T01:28:53;13.57;;;7.90;;
11535;SDS011;5824;49.336;8.652;2023-06-22T01:31:22;13.63;;;8.93;;
11535;SDS011;5824;49.336;8.652;2023-06-22T01:33:50;11.70;;;8.67;;
11535;SDS011;5824;49.336;8.652;2023-06-22T01:36:18;12.00;;;9.10;;
11535;SDS011;5824;49.336;8.652;2023-06-22T01:38:44;13.83;;;9.33;;
11535;SDS011;5824;49.336;8.652;2023-06-22T01:41:12;13.30;;;10.13;;
11535;SDS011;5824;49.336;8.652;2023-06-22T01:43:38;16.27;;;9.70;;
11535;SDS011;5824;49.336;8.652;2023-06-22T01:46:04;12.03;;;9.67;;
11535;SDS011;5824;49.336;8.652;2023-06-22T01:48:29;18.30;;;10.83;;
11535;SDS011;5824;49.336;8.652;2023-06-22T01:50:56;14.13;;;10.17;;
11535;SDS011;5824;49.336;8.652;2023-06-22T01:53:22;11.30;;;9.60;;
11535;SDS011;5824;49.336;8.652;2023-06-22T01:55:48;17.73;;;9.90;;
11535;SDS011;5824;49.336;8.652;2023-06-22T01:58:14;15.03;;;9.50;;
11535;SDS011;5824;49.336;8.652;2023-06-22T02:00:40;11.33;;;9.70;;
11535;SDS011;5824;49.336;8.652;2023-06-22T02:03:14;13.60;;;10.33;;
11535;SDS011;5824;49.336;8.652;2023-06-22T02:05:48;15.60;;;11.97;;
11535;SDS011;5824;49.336;8.652;2023-06-22T02:08:25;15.30;;;10.40;;
11535;SDS011;5824;49.336;8.652;2023-06-22T02:10:57;15.63;;;11.60;;
11535;SDS011;5824;49.336;8.652;2023-06-22T02:13:24;17.23;;;11.17;;
11535;SDS011;5824;49.336;8.652;2023-06-22T02:15:50;13.80;;;11.10;;
11535;SDS011;5824;49.336;8.652;2023-06-22T02:18:16;11.70;;;9.77;;
11535;SDS011;5824;49.336;8.652;2023-06-22T02:20:42;13.50;;;11.30;;
11535;SDS011;5824;49.336;8.652;2023-06-22T02:23:08;15.23;;;11.07;;
11535;SDS011;5824;49.336;8.652;2023-06-22T02:25:34;13.97;;;10.67;;
11535;SDS011;5824;49.336;8.652;2023-06-22T02:28:00;13.50;;;10.50;;
11535;SDS011;5824;49.336;8.652;2023-06-22T02:30:26;13.60;;;11.17;;
11535;SDS011;5824;49.336;8.652;2023-06-22T02:32:52;19.30;;;10.70;;
11535;SDS011;5824;49.336;8.652;2023-06-22T02:35:24;16.17;;;11.47;;
11535;SDS011;5824;49.336;8.652;2023-06-22T02:38:00;14.50;;;10.90;;
11535;SDS011;5824;49.336;8.652;2023-06-22T02:40:26;17.70;;;11.63;;
11535;SDS011;5824;49.336;8.652;2023-06-22T02:42:52;14.10;;;11.40;;
11535;SDS011;5824;49.336;8.652;2023-06-22T02:45:18;15.57;;;11.27;;
11535;SDS011;5824;49.336;8.652;2023-06-22T02:47:43;14.47;;;11.17;;
11535;SDS011;5824;49.336;8.652;2023-06-22T02:50:09;15.27;;;10.97;;
11535;SDS011;5824;49.336;8.652;2023-06-22T02:52:35;17.03;;;10.50;;
11535;SDS011;5824;49.336;8.652;2023-06-22T02:55:00;14.57;;;11.17;;
11535;SDS011;5824;49.336;8.652;2023-06-22T02:57:26;19.53;;;11.00;;
11535;SDS011;5824;49.336;8.652;2023-06-22T02:59:51;14.77;;;10.67;;
11535;SDS011;5824;49.336;8.652;2023-06-22T03:02:17;19.70;;;11.50;;
11535;SDS011;5824;49.336;8.652;2023-06-22T03:04:45;14.47;;;10.80;;
11535;SDS011;5824;49.336;8.652;2023-06-22T03:07:13;13.40;;;10.10;;
11535;SDS011;5824;49.336;8.652;2023-06-22T03:09:39;14.20;;;10.90;;
11535;SDS011;5824;49.336;8.652;2023-06-22T03:12:07;13.83;;;10.80;;
11535;SDS011;5824;49.336;8.652;2023-06-22T03:14:32;15.40;;;10.23;;
11535;SDS011;5824;49.336;8.652;2023-06-22T03:16:58;14.13;;;10.70;;
11535;SDS011;5824;49.336;8.652;2023-06-22T03:19:28;14.80;;;10.03;;
11535;SDS011;5824;49.336;8.652;2023-06-22T03:21:54;15.50;;;10.10;;
11535;SDS011;5824;49.336;8.652;2023-06-22T03:24:20;12.70;;;10.20;;
11535;SDS011;5824;49.336;8.652;2023-06-22T03:26:46;14.83;;;10.23;;
11535;SDS011;5824;49.336;8.652;2023-06-22T03:29:11;15.40;;;10.10;;
11535;SDS011;5824;49.336;8.652;2023-06-22T03:31:37;12.83;;;9.83;;
11535;SDS011;5824;49.336;8.652;2023-06-22T03:34:03;14.43;;;10.27;;
11535;SDS011;5824;49.336;8.652;2023-06-22T03:36:28;13.63;;;9.77;;
11535;SDS011;5824;49.336;8.652;2023-06-22T03:38:54;13.40;;;10.30;;
11535;SDS011;5824;49.336;8.652;2023-06-22T03:41:20;15.97;;;10.50;;
11535;SDS011;5824;49.336;8.652;2023-06-22T03:43:45;14.70;;;10.00;;
11535;SDS011;5824;49.336;8.652;2023-06-22T03:46:11;13.63;;;10.90;;
11535;SDS011;5824;49.336;8.652;2023-06-22T03:48:37;12.80;;;10.10;;
11535;SDS011;5824;49.336;8.652;2023-06-22T03:51:03;15.47;;;10.60;;
11535;SDS011;5824;49.336;8.652;2023-06-22T03:53:29;15.10;;;9.43;;
11535;SDS011;5824;49.336;8.652;2023-06-22T03:55:55;11.97;;;8.97;;
11535;SDS011;5824;49.336;8.652;2023-06-22T03:58:21;12.43;;;8.63;;
11535;SDS011;5824;49.336;8.652;2023-06-22T04:00:47;12.77;;;9.43;;
11535;SDS011;5824;49.336;8.652;2023-06-22T04:03:13;13.67;;;9.07;;
11535;SDS011;5824;49.336;8.652;2023-06-22T04:05:40;15.13;;;9.47;;
11535;SDS011;5824;49.336;8.652;2023-06-22T04:08:05;10.57;;;8.43;;
11535;SDS011;5824;49.336;8.652;2023-06-22T04:10:31;14.83;;;9.20;;
11535;SDS011;5824;49.336;8.652;2023-06-22T04:12:57;12.23;;;9.27;;
11535;SDS011;5824;49.336;8.652;2023-06-22T04:15:22;20.10;;;9.90;;
11535;SDS011;5824;49.336;8.652;2023-06-22T04:17:48;12.10;;;9.10;;
11535;SDS011;5824;49.336;8.652;2023-06-22T04:20:13;16.27;;;10.80;;
11535;SDS011;5824;49.336;8.652;2023-06-22T04:22:39;15.07;;;10.67;;
11535;SDS011;5824;49.336;8.652;2023-06-22T04:25:05;11.20;;;9.57;;
11535;SDS011;5824;49.336;8.652;2023-06-22T04:27:32;13.43;;;9.10;;
11535;SDS011;5824;49.336;8.652;2023-06-22T04:30:02;12.93;;;9.60;;
11535;SDS011;5824;49.336;8.652;2023-06-22T04:32:37;13.03;;;9.63;;
11535;SDS011;5824;49.336;8.652;2023-06-22T04:35:03;11.77;;;9.30;;
11535;SDS011;5824;49.336;8.652;2023-06-22T04:37:32;11.90;;;10.03;;
11535;SDS011;5824;49.336;8.652;2023-06-22T04:39:58;12.47;;;8.30;;
11535;SDS011;5824;49.336;8.652;2023-06-22T04:42:27;11.40;;;8.60;;
11535;SDS011;5824;49.336;8.652;2023-06-22T04:44:53;12.73;;;8.50;;
11535;SDS011;5824;49.336;8.652;2023-06-22T04:47:19;16.00;;;9.73;;
11535;SDS011;5824;49.336;8.652;2023-06-22T04:49:45;14.60;;;9.37;;
11535;SDS011;5824;49.336;8.652;2023-06-22T04:52:11;13.70;;;9.20;;
11535;SDS011;5824;49.336;8.652;2023-06-22T04:54:38;11.63;;;9.33;;
11535;SDS011;5824;49.336;8.652;2023-06-22T04:57:05;9.47;;;8.40;;
11535;SDS011;5824;49.336;8.652;2023-06-22T04:59:35;10.97;;;9.03;;
11535;SDS011;5824;49.336;8.652;2023-06-22T05:02:04;15.83;;;9.10;;
11535;SDS011;5824;49.336;8.652;2023-06-22T05:04:30;10.10;;;8.33;;
11535;SDS011;5824;49.336;8.652;2023-06-22T05:06:56;10.30;;;8.27;;
11535;SDS011;5824;49.336;8.652;2023-06-22T05:09:25;10.73;;;8.40;;
11535;SDS011;5824;49.336;8.652;2023-06-22T05:11:50;12.00;;;8.67;;
11535;SDS011;5824;49.336;8.652;2023-06-22T05:14:16;12.47;;;8.67;;
11535;SDS011;5824;49.336;8.652;2023-06-22T05:16:43;9.40;;;7.33;;
11535;SDS011;5824;49.336;8.652;2023-06-22T05:19:09;12.17;;;8.50;;
11535;SDS011;5824;49.336;8.652;2023-06-22T05:21:35;10.40;;;8.40;;
11535;SDS011;5824;49.336;8.652;2023-06-22T05:24:01;10.80;;;7.93;;
11535;SDS011;5824;49.336;8.652;2023-06-22T05:26:28;10.30;;;8.47;;
11535;SDS011;5824;49.336;8.652;2023-06-22T05:28:55;11.73;;;8.00;;
11535;SDS011;5824;49.336;8.652;2023-06-22T05:31:20;9.37;;;7.63;;
11535;SDS011;5824;49.336;8.652;2023-06-22T05:33:47;10.80;;;7.20;;
11535;SDS011;5824;49.336;8.652;2023-06-22T05:36:13;11.57;;;8.47;;
11535;SDS011;5824;49.336;8.652;2023-06-22T05:38:39;9.47;;;7.20;;
11535;SDS011;5824;49.336;8.652;2023-06-22T05:41:05;11.17;;;7.60;;
11535;SDS011;5824;49.336;8.652;2023-06-22T05:43:31;18.13;;;8.17;;
11535;SDS011;5824;49.336;8.652;2023-06-22T05:45:57;10.87;;;8.53;;
11535;SDS011;5824;49.336;8.652;2023-06-22T05:48:23;11.30;;;7.50;;
11535;SDS011;5824;49.336;8.652;2023-06-22T05:50:48;11.17;;;7.57;;
11535;SDS011;5824;49.336;8.652;2023-06-22T05:53:14;10.97;;;7.80;;
11535;SDS011;5824;49.336;8.652;2023-06-22T05:55:40;9.83;;;7.97;;
11535;SDS011;5824;49.336;8.652;2023-06-22T05:58:05;12.13;;;7.90;;
11535;SDS011;5824;49.336;8.652;2023-06-22T06:00:31;10.07;;;8.13;;
11535;SDS011;5824;49.336;8.652;2023-06-22T06:02:57;11.33;;;8.60;;
11535;SDS011;5824;49.336;8.652;2023-06-22T06:05:28;10.33;;;8.27;;
11535;SDS011;5824;49.336;8.652;2023-06-22T06:07:57;8.63;;;7.33;;
11535;SDS011;5824;49.336;8.652;2023-06-22T06:10:23;10.63;;;7.50;;
11535;SDS011;5824;49.336;8.652;2023-06-22T06:12:48;9.47;;;7.70;;
11535;SDS011;5824;49.336;8.652;2023-06-22T06:15:14;10.40;;;7.93;;
11535;SDS011;5824;49.336;8.652;2023-06-22T06:17:49;11.00;;;7.90;;
11535;SDS011;5824;49.336;8.652;2023-06-22T06:20:20;10.60;;;7.30;;
11535;SDS011;5824;49.336;8.652;2023-06-22T06:22:47;9.80;;;7.37;;
11535;SDS011;5824;49.336;8.652;2023-06-22T06:25:13;11.70;;;7.60;;
11535;SDS011;5824;49.336;8.652;2023-06-22T06:27:45;11.40;;;8.33;;
11535;SDS011;5824;49.336;8.652;2023-06-22T06:30:11;9.90;;;8.13;;
11535;SDS011;5824;49.336;8.652;2023-06-22T06:32:38;10.13;;;8.00;;
11535;SDS011;5824;49.336;8.652;2023-06-22T06:35:08;12.87;;;7.80;;
11535;SDS011;5824;49.336;8.652;2023-06-22T06:37:36;10.00;;;7.87;;
11535;SDS011;5824;49.336;8.652;2023-06-22T06:40:03;10.90;;;8.03;;
11535;SDS011;5824;49.336;8.652;2023-06-22T06:42:30;10.70;;;8.47;;
11535;SDS011;5824;49.336;8.652;2023-06-22T06:44:56;11.53;;;8.27;;
11535;SDS011;5824;49.336;8.652;2023-06-22T06:47:22;12.00;;;8.50;;
11535;SDS011;5824;49.336;8.652;2023-06-22T06:49:47;10.27;;;8.20;;
11535;SDS011;5824;49.336;8.652;2023-06-22T06:52:13;9.90;;;8.07;;
11535;SDS011;5824;49.336;8.652;2023-06-22T06:54:39;12.70;;;8.63;;
11535;SDS011;5824;49.336;8.652;2023-06-22T06:57:07;11.20;;;8.40;;
11535;SDS011;5824;49.336;8.652;2023-06-22T06:59:35;9.67;;;8.67;;
11535;SDS011;5824;49.336;8.652;2023-06-22T07:02:01;12.00;;;8.10;;
11535;SDS011;5824;49.336;8.652;2023-06-22T07:04:26;12.20;;;8.10;;
11535;SDS011;5824;49.336;8.652;2023-06-22T07:06:52;10.93;;;8.80;;
11535;SDS011;5824;49.336;8.652;2023-06-22T07:09:18;12.40;;;8.63;;
11535;SDS011;5824;49.336;8.652;2023-06-22T07:11:44;10.53;;;8.67;;
11535;SDS011;5824;49.336;8.652;2023-06-22T07:14:09;10.50;;;8.53;;
11535;SDS011;5824;49.336;8.652;2023-06-22T07:16:35;9.33;;;8.33;;
11535;SDS011;5824;49.336;8.652;2023-06-22T07:19:00;10.00;;;8.90;;
11535;SDS011;5824;49.336;8.652;2023-06-22T07:21:26;13.50;;;8.50;;
11535;SDS011;5824;49.336;8.652;2023-06-22T07:23:51;10.30;;;8.70;;
11535;SDS011;5824;49.336;8.652;2023-06-22T07:26:17;15.23;;;8.30;;
11535;SDS011;5824;49.336;8.652;2023-06-22T07:28:42;10.90;;;8.53;;
11535;SDS011;5824;49.336;8.652;2023-06-22T07:31:09;10.53;;;8.30;;
11535;SDS011;5824;49.336;8.652;2023-06-22T07:33:35;11.83;;;8.20;;
11535;SDS011;5824;49.336;8.652;2023-06-22T07:36:00;10.30;;;8.20;;
11535;SDS011;5824;49.336;8.652;2023-06-22T07:38:27;10.83;;;8.73;;
11535;SDS011;5824;49.336;8.652;2023-06-22T07:40:53;12.80;;;8.50;;
11535;SDS011;5824;49.336;8.652;2023-06-22T07:43:19;9.70;;;7.47;;
11535;SDS011;5824;49.336;8.652;2023-06-22T07:45:48;13.40;;;9.07;;
11535;SDS011;5824;49.336;8.652;2023-06-22T07:48:19;20.23;;;9.00;;
11535;SDS011;5824;49.336;8.652;2023-06-22T07:50:46;10.47;;;8.30;;
11535;SDS011;5824;49.336;8.652;2023-06-22T07:53:12;11.93;;;8.80;;
11535;SDS011;5824;49.336;8.652;2023-06-22T07:55:37;14.23;;;8.03;;
11535;SDS011;5824;49.336;8.652;2023-06-22T07:58:03;13.53;;;8.17;;
11535;SDS011;5824;49.336;8.652;2023-06-22T08:00:28;12.33;;;8.70;;
11535;SDS011;5824;49.336;8.652;2023-06-22T08:02:54;10.30;;;8.40;;
11535;SDS011;5824;49.336;8.652;2023-06-22T08:05:20;8.73;;;7.40;;
11535;SDS011;5824;49.336;8.652;2023-06-22T08:07:46;8.40;;;7.50;;
11535;SDS011;5824;49.336;8.652;2023-06-22T08:10:11;10.53;;;7.60;;
11535;SDS011;5824;49.336;8.652;2023-06-22T08:12:38;10.00;;;8.37;;
11535;SDS011;5824;49.336;8.652;2023-06-22T08:15:07;10.70;;;7.67;;
11535;SDS011;5824;49.336;8.652;2023-06-22T08:17:32;9.70;;;7.57;;
11535;SDS011;5824;49.336;8.652;2023-06-22T08:19:58;13.10;;;8.10;;
11535;SDS011;5824;49.336;8.652;2023-06-22T08:22:24;12.32;;;7.60;;
11535;SDS011;5824;49.336;8.652;2023-06-22T08:24:50;13.10;;;8.02;;
11535;SDS011;5824;49.336;8.652;2023-06-22T08:27:16;10.55;;;8.10;;
11535;SDS011;5824;49.336;8.652;2023-06-22T08:29:46;9.30;;;7.35;;
11535;SDS011;5824;49.336;8.652;2023-06-22T08:32:11;14.50;;;7.53;;
11535;SDS011;5824;49.336;8.652;2023-06-22T08:34:37;12.35;;;7.22;;
11535;SDS011;5824;49.336;8.652;2023-06-22T08:37:07;9.90;;;7.88;;
11535;SDS011;5824;49.336;8.652;2023-06-22T08:39:34;13.93;;;7.75;;
11535;SDS011;5824;49.336;8.652;2023-06-22T08:41:59;10.40;;;6.88;;
11535;SDS011;5824;49.336;8.652;2023-06-22T08:44:25;10.23;;;7.30;;
11535;SDS011;5824;49.336;8.652;2023-06-22T08:46:51;12.68;;;7.22;;
11535;SDS011;5824;49.336;8.652;2023-06-22T08:49:18;13.05;;;7.30;;
11535;SDS011;5824;49.336;8.652;2023-06-22T08:51:43;7.95;;;6.28;;
11535;SDS011;5824;49.336;8.652;2023-06-22T08:54:12;10.23;;;7.15;;
11535;SDS011;5824;49.336;8.652;2023-06-22T08:56:38;10.52;;;7.65;;
11535;SDS011;5824;49.336;8.652;2023-06-22T08:59:03;15.07;;;7.10;;
11535;SDS011;5824;49.336;8.652;2023-06-22T09:01:32;10.18;;;6.90;;
11535;SDS011;5824;49.336;8.652;2023-06-22T09:03:58;9.00;;;6.85;;
11535;SDS011;5824;49.336;8.652;2023-06-22T09:06:25;10.75;;;7.10;;
11535;SDS011;5824;49.336;8.652;2023-06-22T09:08:50;10.95;;;7.13;;
11535;SDS011;5824;49.336;8.652;2023-06-22T09:11:17;9.07;;;7.10;;
11535;SDS011;5824;49.336;8.652;2023-06-22T09:13:43;12.30;;;7.18;;
11535;SDS011;5824;49.336;8.652;2023-06-22T09:16:08;11.88;;;7.22;;
11535;SDS011;5824;49.336;8.652;2023-06-22T09:18:34;10.57;;;6.68;;
11535;SDS011;5824;49.336;8.652;2023-06-22T09:21:01;10.27;;;6.63;;
11535;SDS011;5824;49.336;8.652;2023-06-22T09:23:26;7.18;;;6.43;;
11535;SDS011;5824;49.336;8.652;2023-06-22T09:25:52;11.73;;;6.95;;
11535;SDS011;5824;49.336;8.652;2023-06-22T09:28:18;8.70;;;6.50;;
11535;SDS011;5824;49.336;8.652;2023-06-22T09:30:44;8.15;;;6.13;;
11535;SDS011;5824;49.336;8.652;2023-06-22T09:33:10;7.82;;;6.28;;
11535;SDS011;5824;49.336;8.652;2023-06-22T09:35:36;13.15;;;7.05;;
11535;SDS011;5824;49.336;8.652;2023-06-22T09:38:02;10.43;;;6.22;;
11535;SDS011;5824;49.336;8.652;2023-06-22T09:40:28;9.77;;;6.70;;
11535;SDS011;5824;49.336;8.652;2023-06-22T09:42:54;11.57;;;6.43;;
11535;SDS011;5824;49.336;8.652;2023-06-22T09:45:19;7.57;;;6.38;;
11535;SDS011;5824;49.336;8.652;2023-06-22T09:47:45;10.38;;;6.43;;
11535;SDS011;5824;49.336;8.652;2023-06-22T09:50:11;9.63;;;6.32;;
11535;SDS011;5824;49.336;8.652;2023-06-22T09:52:37;8.68;;;5.90;;
11535;SDS011;5824;49.336;8.652;2023-06-22T09:55:03;8.55;;;6.03;;
11535;SDS011;5824;49.336;8.652;2023-06-22T09:57:29;22.15;;;6.47;;
11535;SDS011;5824;49.336;8.652;2023-06-22T09:59:55;10.35;;;6.65;;
11535;SDS011;5824;49.336;8.652;2023-06-22T10:02:21;7.97;;;5.85;;
11535;SDS011;5824;49.336;8.652;2023-06-22T10:04:47;9.23;;;6.18;;
11535;SDS011;5824;49.336;8.652;2023-06-22T10:07:13;10.15;;;5.65;;
11535;SDS011;5824;49.336;8.652;2023-06-22T10:09:40;11.65;;;6.30;;
11535;SDS011;5824;49.336;8.652;2023-06-22T10:12:05;10.10;;;5.75;;
11535;SDS011;5824;49.336;8.652;2023-06-22T10:14:31;9.07;;;6.40;;
11535;SDS011;5824;49.336;8.652;2023-06-22T10:16:57;8.77;;;6.00;;
11535;SDS011;5824;49.336;8.652;2023-06-22T10:19:23;12.63;;;6.65;;
11535;SDS011;5824;49.336;8.652;2023-06-22T10:21:49;14.55;;;6.88;;
11535;SDS011;5824;49.336;8.652;2023-06-22T10:24:14;9.75;;;6.72;;
11535;SDS011;5824;49.336;8.652;2023-06-22T10:26:40;13.15;;;6.53;;
11535;SDS011;5824;49.336;8.652;2023-06-22T10:29:06;12.20;;;5.97;;
11535;SDS011;5824;49.336;8.652;2023-06-22T10:31:32;16.23;;;6.35;;
11535;SDS011;5824;49.336;8.652;2023-06-22T10:33:58;8.23;;;6.43;;
11535;SDS011;5824;49.336;8.652;2023-06-22T10:36:23;10.23;;;6.53;;
11535;SDS011;5824;49.336;8.652;2023-06-22T10:38:49;10.77;;;6.75;;
11535;SDS011;5824;49.336;8.652;2023-06-22T10:41:15;10.15;;;6.80;;
11535;SDS011;5824;49.336;8.652;2023-06-22T10:43:43;13.82;;;6.63;;
11535;SDS011;5824;49.336;8.652;2023-06-22T10:46:09;17.40;;;7.05;;
11535;SDS011;5824;49.336;8.652;2023-06-22T10:48:34;11.50;;;6.90;;
11535;SDS011;5824;49.336;8.652;2023-06-22T10:51:00;10.95;;;6.70;;
11535;SDS011;5824;49.336;8.652;2023-06-22T10:53:25;12.63;;;7.05;;
11535;SDS011;5824;49.336;8.652;2023-06-22T10:55:51;10.82;;;6.65;;
11535;SDS011;5824;49.336;8.652;2023-06-22T10:58:18;11.48;;;6.78;;
11535;SDS011;5824;49.336;8.652;2023-06-22T11:00:44;9.15;;;6.30;;
11535;SDS011;5824;49.336;8.652;2023-06-22T11:03:10;9.68;;;6.55;;
11535;SDS011;5824;49.336;8.652;2023-06-22T11:05:37;7.43;;;5.90;;
11535;SDS011;5824;49.336;8.652;2023-06-22T11:08:02;16.38;;;6.63;;
11535;SDS011;5824;49.336;8.652;2023-06-22T11:10:28;10.10;;;6.03;;
11535;SDS011;5824;49.336;8.652;2023-06-22T11:12:54;9.60;;;6.13;;
11535;SDS011;5824;49.336;8.652;2023-06-22T11:15:21;10.75;;;6.60;;
11535;SDS011;5824;49.336;8.652;2023-06-22T11:17:47;8.77;;;6.30;;
11535;SDS011;5824;49.336;8.652;2023-06-22T11:20:12;11.98;;;6.65;;
11535;SDS011;5824;49.336;8.652;2023-06-22T11:22:38;12.65;;;6.38;;
11535;SDS011;5824;49.336;8.652;2023-06-22T11:25:05;9.30;;;6.40;;
11535;SDS011;5824;49.336;8.652;2023-06-22T11:27:31;10.43;;;6.40;;
11535;SDS011;5824;49.336;8.652;2023-06-22T11:29:57;9.15;;;5.43;;
11535;SDS011;5824;49.336;8.652;2023-06-22T11:32:23;13.63;;;6.25;;
11535;SDS011;5824;49.336;8.652;2023-06-22T11:34:49;11.35;;;6.55;;
11535;SDS011;5824;49.336;8.652;2023-06-22T11:37:15;11.38;;;6.30;;
11535;SDS011;5824;49.336;8.652;2023-06-22T11:39:41;9.30;;;6.45;;
11535;SDS011;5824;49.336;8.652;2023-06-22T11:42:07;10.35;;;6.18;;
11535;SDS011;5824;49.336;8.652;2023-06-22T11:44:33;11.07;;;6.20;;
11535;SDS011;5824;49.336;8.652;2023-06-22T11:46:59;10.63;;;6.20;;
11535;SDS011;5824;49.336;8.652;2023-06-22T11:49:26;11.15;;;6.18;;
11535;SDS011;5824;49.336;8.652;2023-06-22T11:51:52;12.10;;;6.93;;
11535;SDS011;5824;49.336;8.652;2023-06-22T11:54:18;11.77;;;6.70;;
11535;SDS011;5824;49.336;8.652;2023-06-22T11:56:43;10.73;;;6.10;;
11535;SDS011;5824;49.336;8.652;2023-06-22T11:59:09;11.30;;;7.00;;
11535;SDS011;5824;49.336;8.652;2023-06-22T12:01:35;10.20;;;5.88;;
11535;SDS011;5824;49.336;8.652;2023-06-22T12:04:01;13.93;;;6.45;;
11535;SDS011;5824;49.336;8.652;2023-06-22T12:06:26;13.85;;;6.90;;
11535;SDS011;5824;49.336;8.652;2023-06-22T12:08:52;13.45;;;7.15;;
11535;SDS011;5824;49.336;8.652;2023-06-22T12:11:18;14.35;;;6.95;;
11535;SDS011;5824;49.336;8.652;2023-06-22T12:13:43;14.10;;;7.00;;
11535;SDS011;5824;49.336;8.652;2023-06-22T12:16:09;14.18;;;6.97;;
11535;SDS011;5824;49.336;8.652;2023-06-22T12:18:34;10.15;;;6.68;;
11535;SDS011;5824;49.336;8.652;2023-06-22T12:21:00;20.40;;;6.40;;
11535;SDS011;5824;49.336;8.652;2023-06-22T12:23:27;10.15;;;6.38;;
11535;SDS011;5824;49.336;8.652;2023-06-22T12:25:53;10.63;;;6.90;;
11535;SDS011;5824;49.336;8.652;2023-06-22T12:28:18;12.07;;;6.35;;
11535;SDS011;5824;49.336;8.652;2023-06-22T12:30:44;14.55;;;7.15;;
11535;SDS011;5824;49.336;8.652;2023-06-22T12:33:10;12.82;;;6.38;;
11535;SDS011;5824;49.336;8.652;2023-06-22T12:35:36;12.98;;;6.93;;
11535;SDS011;5824;49.336;8.652;2023-06-22T12:38:01;16.10;;;7.10;;
11535;SDS011;5824;49.336;8.652;2023-06-22T12:40:28;15.10;;;6.80;;
11535;SDS011;5824;49.336;8.652;2023-06-22T12:42:53;11.65;;;6.57;;
11535;SDS011;5824;49.336;8.652;2023-06-22T12:45:19;12.77;;;6.15;;
11535;SDS011;5824;49.336;8.652;2023-06-22T12:47:46;18.45;;;6.45;;
11535;SDS011;5824;49.336;8.652;2023-06-22T12:50:12;9.55;;;6.68;;
11535;SDS011;5824;49.336;8.652;2023-06-22T12:52:39;11.32;;;6.10;;
11535;SDS011;5824;49.336;8.652;2023-06-22T12:55:05;16.90;;;6.65;;
11535;SDS011;5824;49.336;8.652;2023-06-22T12:57:32;12.63;;;7.03;;
11535;SDS011;5824;49.336;8.652;2023-06-22T12:59:58;13.38;;;7.05;;
11535;SDS011;5824;49.336;8.652;2023-06-22T13:02:25;10.02;;;6.20;;
11535;SDS011;5824;49.336;8.652;2023-06-22T13:04:50;12.00;;;6.40;;
11535;SDS011;5824;49.336;8.652;2023-06-22T13:07:16;15.10;;;6.97;;
11535;SDS011;5824;49.336;8.652;2023-06-22T13:09:42;11.35;;;6.97;;
11535;SDS011;5824;49.336;8.652;2023-06-22T13:12:07;11.82;;;6.68;;
11535;SDS011;5824;49.336;8.652;2023-06-22T13:14:33;13.35;;;6.80;;
11535;SDS011;5824;49.336;8.652;2023-06-22T13:16:59;11.65;;;5.90;;
11535;SDS011;5824;49.336;8.652;2023-06-22T13:19:24;21.35;;;6.80;;
11535;SDS011;5824;49.336;8.652;2023-06-22T13:21:53;14.45;;;6.63;;
11535;SDS011;5824;49.336;8.652;2023-06-22T13:24:19;15.20;;;6.57;;
11535;SDS011;5824;49.336;8.652;2023-06-22T13:26:45;10.80;;;6.75;;
11535;SDS011;5824;49.336;8.652;2023-06-22T13:29:11;12.98;;;6.55;;
11535;SDS011;5824;49.336;8.652;2023-06-22T13:31:37;12.57;;;6.07;;
11535;SDS011;5824;49.336;8.652;2023-06-22T13:34:03;10.95;;;6.20;;
11535;SDS011;5824;49.336;8.652;2023-06-22T13:36:28;10.43;;;6.40;;
11535;SDS011;5824;49.336;8.652;2023-06-22T13:38:55;13.77;;;6.78;;
11535;SDS011;5824;49.336;8.652;2023-06-22T13:41:21;11.75;;;7.03;;
11535;SDS011;5824;49.336;8.652;2023-06-22T13:43:46;12.45;;;7.10;;
11535;SDS011;5824;49.336;8.652;2023-06-22T13:46:12;15.45;;;6.97;;
11535;SDS011;5824;49.336;8.652;2023-06-22T13:48:38;12.02;;;6.60;;
11535;SDS011;5824;49.336;8.652;2023-06-22T13:51:04;13.05;;;6.97;;
11535;SDS011;5824;49.336;8.652;2023-06-22T13:53:31;15.43;;;7.53;;
11535;SDS011;5824;49.336;8.652;2023-06-22T13:55:57;13.30;;;6.90;;
11535;SDS011;5824;49.336;8.652;2023-06-22T13:58:22;12.60;;;7.07;;
11535;SDS011;5824;49.336;8.652;2023-06-22T14:00:48;14.40;;;7.55;;
11535;SDS011;5824;49.336;8.652;2023-06-22T14:03:15;16.55;;;7.20;;
11535;SDS011;5824;49.336;8.652;2023-06-22T14:05:42;14.65;;;7.38;;
11535;SDS011;5824;49.336;8.652;2023-06-22T14:08:08;10.10;;;6.97;;
11535;SDS011;5824;49.336;8.652;2023-06-22T14:10:34;18.13;;;7.25;;
11535;SDS011;5824;49.336;8.652;2023-06-22T14:13:00;12.85;;;7.05;;
11535;SDS011;5824;49.336;8.652;2023-06-22T14:15:25;14.35;;;8.20;;
11535;SDS011;5824;49.336;8.652;2023-06-22T14:17:51;16.00;;;8.20;;
11535;SDS011;5824;49.336;8.652;2023-06-22T14:20:17;14.05;;;7.97;;
11535;SDS011;5824;49.336;8.652;2023-06-22T14:22:43;19.50;;;8.32;;
11535;SDS011;5824;49.336;8.652;2023-06-22T14:25:09;14.85;;;7.38;;
11535;SDS011;5824;49.336;8.652;2023-06-22T14:27:35;11.50;;;7.05;;
11535;SDS011;5824;49.336;8.652;2023-06-22T14:30:01;19.23;;;8.05;;
11535;SDS011;5824;49.336;8.652;2023-06-22T14:32:27;14.10;;;8.00;;
11535;SDS011;5824;49.336;8.652;2023-06-22T14:34:54;11.73;;;7.88;;
11535;SDS011;5824;49.336;8.652;2023-06-22T14:37:20;11.43;;;7.20;;
11535;SDS011;5824;49.336;8.652;2023-06-22T14:39:46;13.07;;;8.18;;
11535;SDS011;5824;49.336;8.652;2023-06-22T14:42:12;19.55;;;8.63;;
11535;SDS011;5824;49.336;8.652;2023-06-22T14:44:37;13.93;;;8.10;;
11535;SDS011;5824;49.336;8.652;2023-06-22T14:47:03;21.02;;;8.55;;
11535;SDS011;5824;49.336;8.652;2023-06-22T14:49:29;11.52;;;8.05;;